Archival Weather

Randolph Afb

Universal City, Texas (KRND)

Report from: Monday, September 26, 2022 4:55 AM CDT
Current time: Saturday, February 4, 2023 11:12 PM CST

Current weather
Weather history
Weather forecast

Temperature22.8°C (73.0°F)
Dew point21.2°C (70.2°F)
Winds 4 kts (2.1 m/s, 4.6 mph) Northwest (310°)
Visibility10 mi. (16.1 km)
Clouds Few clouds 10,000 ft. (3,048 m)
Altimeter29.97 in.Hg (1015 mB)
Relative humidity91 %
Density altitude1,191 ft. (363 m)
Sea-level pressure101.4 kPa (1014 mB, 29.94 in.Hg)
Remarks Fully automated report
Automated weather observing station with precipitation discriminator
Flight conditions Visual Meteorological Conditions
Raw dataKRND 260955Z AUTO 31004KT 10SM FEW100 23/21 A2997 RMK AO2 SLP139 T02280212
An unhandled exception has occurred. See browser dev tools for details. Reload 🗙